createdAt,value
2019-05-12T00:01:50.302Z,5.57
2019-05-12T00:04:20.407Z,3.57
2019-05-12T00:06:50.332Z,5.40
2019-05-12T00:09:20.842Z,3.77
2019-05-12T00:11:50.790Z,6.60
2019-05-12T00:14:20.621Z,5.00
2019-05-12T00:16:50.573Z,5.03
2019-05-12T00:19:21.549Z,4.50
2019-05-12T00:21:51.509Z,4.37
2019-05-12T00:24:21.530Z,4.00
2019-05-12T00:26:53.065Z,4.47
2019-05-12T00:29:22.981Z,4.57
2019-05-12T00:31:52.945Z,6.37
2019-05-12T00:34:23.383Z,2.93
2019-05-12T00:36:53.351Z,5.17
2019-05-12T00:39:23.154Z,6.57
2019-05-12T00:41:53.047Z,4.47
2019-05-12T00:44:23.286Z,3.63
2019-05-12T00:46:53.180Z,3.33
2019-05-12T00:49:23.488Z,6.47
2019-05-12T00:51:53.467Z,4.23
2019-05-12T00:54:23.408Z,3.30
2019-05-12T00:56:53.726Z,4.37
2019-05-12T00:59:23.720Z,4.70
2019-05-12T01:01:53.634Z,6.07
2019-05-12T01:04:23.593Z,5.33
2019-05-12T01:06:53.636Z,5.50
2019-05-12T01:09:24.105Z,5.67
2019-05-12T01:11:54.005Z,6.73
2019-05-12T01:14:23.860Z,5.07
2019-05-12T01:16:53.844Z,3.60
2019-05-12T01:19:24.047Z,2.70
2019-05-12T01:21:53.967Z,3.80
2019-05-12T01:24:23.960Z,4.07
2019-05-12T01:26:53.940Z,4.07
2019-05-12T01:29:23.743Z,3.47
2019-05-12T01:32:00.205Z,5.83
2019-05-12T01:34:30.172Z,3.70
2019-05-12T01:37:19.372Z,4.50
2019-05-12T01:39:49.599Z,5.00
2019-05-12T01:42:19.589Z,6.17
2019-05-12T01:44:50.769Z,4.30
2019-05-12T01:47:20.696Z,5.33
2019-05-12T01:49:50.978Z,4.57
2019-05-12T01:52:20.924Z,6.10
2019-05-12T01:54:50.899Z,4.07
2019-05-12T01:57:21.225Z,3.23
2019-05-12T01:59:51.087Z,5.37
2019-05-12T02:02:20.988Z,6.40
2019-05-12T02:05:10.492Z,4.40
2019-05-12T02:07:47.955Z,3.87
2019-05-12T02:10:18.649Z,3.03
2019-05-12T02:12:49.229Z,5.43
2019-05-12T02:15:20.881Z,3.13
2019-05-12T02:17:50.814Z,3.67
2019-05-12T02:20:21.489Z,7.23
2019-05-12T02:22:51.839Z,5.67
2019-05-12T02:25:21.877Z,3.00
2019-05-12T02:27:51.755Z,4.57
2019-05-12T02:30:22.552Z,5.17
2019-05-12T02:32:58.217Z,4.30
2019-05-12T02:35:25.411Z,7.30
2019-05-12T02:37:55.392Z,4.13
2019-05-12T02:40:25.796Z,3.83
2019-05-12T02:42:55.924Z,4.90
2019-05-12T02:45:25.988Z,4.50
2019-05-12T02:47:55.931Z,4.87
2019-05-12T02:50:35.831Z,5.27
2019-05-12T02:53:06.642Z,5.70
2019-05-12T02:55:37.042Z,4.57
2019-05-12T02:58:07.070Z,5.00
2019-05-12T03:00:37.469Z,4.30
2019-05-12T03:03:09.515Z,4.07
2019-05-12T03:05:44.261Z,3.70
2019-05-12T03:08:15.402Z,3.37
2019-05-12T03:10:47.995Z,6.10
2019-05-12T03:13:18.039Z,2.80
2019-05-12T03:15:47.995Z,5.90
2019-05-12T03:18:17.857Z,3.63
2019-05-12T03:20:47.808Z,3.57
2019-05-12T03:23:19.163Z,5.67
2019-05-12T03:25:49.586Z,5.90
2019-05-12T03:28:19.914Z,4.07
2019-05-12T03:30:50.193Z,5.00
2019-05-12T03:33:20.640Z,5.33
2019-05-12T03:35:58.641Z,4.03
2019-05-12T03:38:25.047Z,5.17
2019-05-12T03:40:55.247Z,4.97
2019-05-12T03:43:25.216Z,4.80
2019-05-12T03:45:56.005Z,4.90
2019-05-12T03:48:25.954Z,3.93
2019-05-12T03:50:56.190Z,6.47
2019-05-12T03:53:26.132Z,4.77
2019-05-12T03:55:56.113Z,5.10
2019-05-12T03:58:25.965Z,4.27
2019-05-12T04:00:55.978Z,5.43
2019-05-12T04:03:25.923Z,4.20
2019-05-12T04:05:55.879Z,4.20
2019-05-12T04:08:25.671Z,3.00
2019-05-12T04:10:55.634Z,6.47
2019-05-12T04:13:26.779Z,4.93
2019-05-12T04:15:56.896Z,5.93
2019-05-12T04:18:26.752Z,4.97
2019-05-12T04:20:56.743Z,4.90
2019-05-12T04:23:26.716Z,6.90
2019-05-12T04:26:07.459Z,4.47
2019-05-12T04:28:28.041Z,6.20
2019-05-12T04:30:57.929Z,5.77
2019-05-12T04:33:27.881Z,5.80
2019-05-12T04:35:58.069Z,5.43
2019-05-12T04:38:28.341Z,6.57
2019-05-12T04:40:58.296Z,5.60
2019-05-12T04:43:28.190Z,5.13
2019-05-12T04:45:58.048Z,4.30
2019-05-12T04:48:27.995Z,3.33
2019-05-12T04:50:57.967Z,6.23
2019-05-12T04:53:27.964Z,4.37
2019-05-12T04:56:10.881Z,4.30
2019-05-12T04:58:29.302Z,5.43
2019-05-12T05:00:59.302Z,6.57
2019-05-12T05:03:29.462Z,4.50
2019-05-12T05:05:59.636Z,4.13
2019-05-12T05:08:29.586Z,6.80
2019-05-12T05:10:59.910Z,3.30
2019-05-12T05:13:30.217Z,7.70
2019-05-12T05:16:00.142Z,4.80
2019-05-12T05:18:34.296Z,5.60
2019-05-12T05:21:04.698Z,5.23
2019-05-12T05:23:35.275Z,6.87
2019-05-12T05:26:20.710Z,8.60
2019-05-12T05:28:38.539Z,7.73
2019-05-12T05:31:08.507Z,7.63
2019-05-12T05:33:38.423Z,10.17
2019-05-12T05:36:08.882Z,9.00
2019-05-12T05:38:40.093Z,7.67
2019-05-12T05:41:10.717Z,7.43
2019-05-12T05:43:41.103Z,8.57
2019-05-12T05:46:10.944Z,7.73
2019-05-12T05:48:43.269Z,8.23
2019-05-12T05:51:13.598Z,6.07
2019-05-12T05:53:44.341Z,6.77
2019-05-12T05:56:18.050Z,6.07
2019-05-12T05:58:51.637Z,4.67
2019-05-12T06:01:18.242Z,5.07
2019-05-12T06:03:48.553Z,5.63
2019-05-12T06:06:18.432Z,6.57
2019-05-12T06:08:59.183Z,4.17
2019-05-12T06:11:29.148Z,5.43
2019-05-12T06:14:03.198Z,6.67
2019-05-12T06:16:30.856Z,4.30
2019-05-12T06:19:00.841Z,5.17
2019-05-12T06:21:36.283Z,4.60
2019-05-12T06:24:03.540Z,6.20
2019-05-12T06:26:35.833Z,5.10
2019-05-12T06:29:05.646Z,2.83
2019-05-12T06:31:37.246Z,5.37
2019-05-12T06:34:15.298Z,4.37
2019-05-12T06:36:39.189Z,4.60
2019-05-12T06:39:10.426Z,4.07
2019-05-12T06:41:40.707Z,6.83
2019-05-12T06:44:14.862Z,5.10
2019-05-12T06:46:44.221Z,6.37
2019-05-12T06:49:17.598Z,6.93
2019-05-12T06:51:45.816Z,4.70
2019-05-12T06:54:16.021Z,5.47
2019-05-12T06:56:50.123Z,8.03
2019-05-12T06:59:17.974Z,4.67
2019-05-12T07:01:49.814Z,4.37
2019-05-12T07:04:23.444Z,4.43
2019-05-12T07:06:56.341Z,4.70
2019-05-12T07:09:27.905Z,3.07
2019-05-12T07:12:02.724Z,2.97
2019-05-12T07:14:27.462Z,4.27
2019-05-12T07:17:05.611Z,7.37
2019-05-12T07:19:34.289Z,5.97
2019-05-12T07:22:18.826Z,3.87
2019-05-12T07:24:35.760Z,6.97
2019-05-12T07:27:09.131Z,4.93
2019-05-12T07:29:38.010Z,3.23
2019-05-12T07:32:16.535Z,3.83
2019-05-12T07:34:39.702Z,5.10
2019-05-12T07:37:10.302Z,2.73
2019-05-12T07:39:47.795Z,3.63
2019-05-12T07:42:14.823Z,2.63
2019-05-12T07:44:46.423Z,2.43
2019-05-12T07:47:19.125Z,3.30
2019-05-12T07:49:48.605Z,3.43
2019-05-12T07:52:19.348Z,3.10
2019-05-12T07:54:52.753Z,4.10
2019-05-12T07:57:24.206Z,5.53
2019-05-12T07:59:54.560Z,5.53
2019-05-12T08:02:31.521Z,1.93
2019-05-12T08:04:56.183Z,3.07
2019-05-12T08:07:29.808Z,4.27
2019-05-12T08:09:58.860Z,2.40
2019-05-12T08:12:29.909Z,1.43
2019-05-12T08:15:07.708Z,1.57
2019-05-12T08:17:33.666Z,2.00
2019-05-12T08:20:04.489Z,2.83
2019-05-12T08:22:34.693Z,4.23
2019-05-12T08:25:05.610Z,1.30
2019-05-12T08:27:39.127Z,3.87
2019-05-12T08:30:08.405Z,1.40
2019-05-12T08:32:38.410Z,2.10
2019-05-12T08:35:08.409Z,2.90
2019-05-12T08:37:38.676Z,2.30
2019-05-12T08:40:09.054Z,1.40
2019-05-12T08:42:39.022Z,2.27
2019-05-12T08:45:15.156Z,3.37
2019-05-12T08:47:40.823Z,3.03
2019-05-12T08:50:13.492Z,5.60
2019-05-12T08:52:44.319Z,1.67
2019-05-12T08:55:16.833Z,1.40
2019-05-12T08:57:49.512Z,1.60
2019-05-12T09:03:20.373Z,2.23
2019-05-12T09:05:50.943Z,1.43
2019-05-12T09:08:24.143Z,2.13
2019-05-12T09:10:55.585Z,1.30
2019-05-12T09:13:25.948Z,1.93
2019-05-12T09:15:55.838Z,2.67
2019-05-12T09:18:33.628Z,2.77
2019-05-12T09:20:59.100Z,2.17
2019-05-12T09:23:32.773Z,2.37
2019-05-12T09:26:01.003Z,1.60
2019-05-12T09:28:44.346Z,1.67
2019-05-12T09:31:03.698Z,2.40
2019-05-12T09:33:34.708Z,1.87
2019-05-12T09:36:05.025Z,1.83
2019-05-12T09:38:34.949Z,1.73
2019-05-12T09:41:05.529Z,8.07
2019-05-12T09:43:40.377Z,3.83
2019-05-12T09:46:08.195Z,2.03
2019-05-12T09:48:39.185Z,2.27
2019-05-12T09:51:10.235Z,2.43
2019-05-12T09:53:42.831Z,3.17
2019-05-12T09:56:13.713Z,3.53
2019-05-12T09:58:43.752Z,1.30
2019-05-12T10:01:14.161Z,2.63
2019-05-12T10:03:44.496Z,3.53
2019-05-12T10:06:17.874Z,2.23
2019-05-12T10:08:46.988Z,3.20
2019-05-12T10:11:20.746Z,1.50
2019-05-12T10:13:48.735Z,1.47
2019-05-12T10:16:18.881Z,1.47
2019-05-12T10:18:51.391Z,2.67
2019-05-12T10:21:20.732Z,2.13
2019-05-12T10:24:00.297Z,2.07
2019-05-12T10:26:22.884Z,1.30
2019-05-12T10:28:58.073Z,3.40
2019-05-12T10:31:29.403Z,4.63
2019-05-12T10:34:15.418Z,1.60
2019-05-12T10:36:49.194Z,2.37
2019-05-12T10:39:19.119Z,2.00
2019-05-12T10:41:49.241Z,1.20
2019-05-12T10:44:20.545Z,2.93
2019-05-12T10:46:53.860Z,2.17
2019-05-12T10:49:23.661Z,1.23
2019-05-12T10:51:54.628Z,2.20
2019-05-12T10:54:24.983Z,2.67
2019-05-12T10:56:54.989Z,1.47
2019-05-12T10:59:32.697Z,2.20
2019-05-12T11:01:56.863Z,1.77
2019-05-12T11:04:35.875Z,1.93
2019-05-12T11:06:58.616Z,2.57
2019-05-12T11:09:31.675Z,2.23
2019-05-12T11:12:03.397Z,2.17
2019-05-12T11:14:34.237Z,2.13
2019-05-12T11:17:08.227Z,2.27
2019-05-12T11:19:40.753Z,1.43
2019-05-12T11:22:09.397Z,2.67
2019-05-12T11:24:39.641Z,1.90
2019-05-12T11:27:09.639Z,3.60
2019-05-12T11:29:46.133Z,1.47
2019-05-12T11:32:13.889Z,2.47
2019-05-12T11:34:44.347Z,3.57
2019-05-12T11:37:15.624Z,1.73
2019-05-12T11:39:47.621Z,4.07
2019-05-12T11:42:17.155Z,4.43
2019-05-12T11:44:46.929Z,3.53
2019-05-12T11:47:24.432Z,1.93
2019-05-12T11:49:48.733Z,3.50
2019-05-12T11:52:19.534Z,4.10
2019-05-12T11:54:53.610Z,1.57
2019-05-12T11:57:28.643Z,1.67
2019-05-12T12:00:01.503Z,2.30
2019-05-12T12:02:30.396Z,3.07
2019-05-12T12:04:58.018Z,2.50
2019-05-12T12:07:27.885Z,1.43
2019-05-12T12:09:59.572Z,1.30
2019-05-12T12:12:30.014Z,1.47
2019-05-12T12:14:59.899Z,1.40
2019-05-12T12:17:32.614Z,1.40
2019-05-12T12:20:03.775Z,1.70
2019-05-12T12:22:43.558Z,2.33
2019-05-12T12:25:15.640Z,2.97
2019-05-12T12:27:45.580Z,3.00
2019-05-12T12:30:19.632Z,2.13
2019-05-12T12:32:50.255Z,1.67
2019-05-12T12:35:19.318Z,1.80
2019-05-12T12:37:50.223Z,2.43
2019-05-12T12:40:20.218Z,1.80
2019-05-12T12:42:50.384Z,1.77
2019-05-12T12:45:48.623Z,2.00
2019-05-12T12:48:19.229Z,2.10
2019-05-12T12:50:50.247Z,1.17
2019-05-12T12:53:20.348Z,1.50
2019-05-12T12:55:50.294Z,1.63
2019-05-12T12:58:21.097Z,1.20
2019-05-12T13:00:56.240Z,2.73
2019-05-12T13:03:25.767Z,1.83
2019-05-12T13:05:55.920Z,1.93
2019-05-12T13:08:25.808Z,1.90
2019-05-12T13:10:55.866Z,1.83
2019-05-12T13:13:26.105Z,1.77
2019-05-12T13:15:55.901Z,2.93
2019-05-12T13:18:32.971Z,1.30
2019-05-12T13:20:58.101Z,2.20
2019-05-12T13:23:38.083Z,1.43
2019-05-12T13:26:00.260Z,2.60
2019-05-12T13:28:30.122Z,4.47
2019-05-12T13:31:09.062Z,4.07
2019-05-12T13:33:33.801Z,2.97
2019-05-12T13:36:04.569Z,1.73
2019-05-12T13:38:38.648Z,3.33
2019-05-12T13:41:09.507Z,1.50
2019-05-12T13:43:37.851Z,2.20
2019-05-12T13:46:08.419Z,2.47
2019-05-12T13:48:38.367Z,2.20
2019-05-12T13:51:13.315Z,2.57
2019-05-12T13:53:40.371Z,4.00
2019-05-12T13:56:13.593Z,5.43
2019-05-12T13:58:45.838Z,1.43
2019-05-12T14:01:19.874Z,1.63
2019-05-12T14:03:50.702Z,2.40
2019-05-12T14:06:23.018Z,2.60
2019-05-12T14:08:50.502Z,1.20
2019-05-12T14:11:20.479Z,1.80
2019-05-12T14:13:50.379Z,1.03
2019-05-12T14:16:20.265Z,1.20
2019-05-12T14:18:51.068Z,2.53
2019-05-12T14:21:24.319Z,1.60
2019-05-12T14:23:54.058Z,2.13
2019-05-12T14:26:24.323Z,1.00
2019-05-12T14:28:54.656Z,1.90
2019-05-12T14:31:30.283Z,3.60
2019-05-12T14:33:56.112Z,2.50
2019-05-12T14:36:26.911Z,3.03
2019-05-12T14:39:00.183Z,2.50
2019-05-12T14:41:28.480Z,1.83
2019-05-12T14:44:01.537Z,2.43
2019-05-12T14:46:33.326Z,0.90
2019-05-12T14:49:03.798Z,1.33
2019-05-12T14:51:33.765Z,1.03
2019-05-12T14:54:04.094Z,2.43
2019-05-12T14:56:34.003Z,1.70
2019-05-12T14:59:04.198Z,1.67
2019-05-12T15:01:51.649Z,1.37
2019-05-12T15:04:05.910Z,1.40
2019-05-12T15:06:35.886Z,1.50
2019-05-12T15:09:11.429Z,1.57
2019-05-12T15:11:39.355Z,1.10
2019-05-12T15:14:09.225Z,1.93
2019-05-12T15:16:40.910Z,1.13
2019-05-12T15:19:10.987Z,1.70
2019-05-12T15:21:43.539Z,2.53
2019-05-12T15:24:15.529Z,2.33
2019-05-12T15:26:44.261Z,1.93
2019-05-12T15:29:19.708Z,2.20
2019-05-12T15:31:54.275Z,1.13
2019-05-12T15:34:18.289Z,1.07
2019-05-12T15:36:51.881Z,2.23
2019-05-12T15:39:21.042Z,2.70
2019-05-12T15:41:55.944Z,1.50
2019-05-12T15:44:31.182Z,1.20
2019-05-12T15:46:54.213Z,1.00
2019-05-12T15:49:26.167Z,1.40
2019-05-12T15:51:58.635Z,1.47
2019-05-12T15:54:30.977Z,1.77
2019-05-12T15:57:00.116Z,0.90
2019-05-12T15:59:30.095Z,0.90
2019-05-12T16:02:09.522Z,0.90
2019-05-12T16:04:34.690Z,0.77
2019-05-12T16:07:04.058Z,1.53
2019-05-12T16:09:35.181Z,1.20
2019-05-12T16:12:18.213Z,1.00
2019-05-12T16:14:41.123Z,2.43
2019-05-12T16:17:08.450Z,1.73
2019-05-12T16:19:38.951Z,1.50
2019-05-12T16:22:08.933Z,2.37
2019-05-12T16:24:43.419Z,1.03
2019-05-12T16:27:10.771Z,1.33
2019-05-12T16:29:45.398Z,2.53
2019-05-12T16:32:23.844Z,1.83
2019-05-12T16:34:47.645Z,1.47
2019-05-12T16:37:16.005Z,1.43
2019-05-12T16:39:47.474Z,0.80
2019-05-12T16:42:17.505Z,1.07
2019-05-12T16:44:47.391Z,1.10
2019-05-12T16:47:18.786Z,2.83
2019-05-12T16:49:48.925Z,1.90
2019-05-12T16:52:20.045Z,2.10
2019-05-12T16:54:50.402Z,2.27
2019-05-12T16:57:20.688Z,1.60
2019-05-12T16:59:55.944Z,2.43
2019-05-12T17:02:23.523Z,4.20
2019-05-12T17:04:54.208Z,2.57
2019-05-12T17:07:27.146Z,3.13
2019-05-12T17:09:56.608Z,2.53
2019-05-12T17:12:31.916Z,1.90
2019-05-12T17:14:59.782Z,2.50
2019-05-12T17:17:30.160Z,1.97
2019-05-12T17:20:00.436Z,4.07
2019-05-12T17:22:30.392Z,1.30
2019-05-12T17:25:00.179Z,1.60
2019-05-12T17:27:30.497Z,1.53
2019-05-12T17:30:00.380Z,1.07
2019-05-12T17:32:30.272Z,2.13
2019-05-12T17:35:00.209Z,2.10
2019-05-12T17:37:31.335Z,1.37
2019-05-12T17:40:03.726Z,1.00
2019-05-12T17:42:34.422Z,2.80
2019-05-12T17:45:09.377Z,3.33
2019-05-12T17:47:36.268Z,1.90
2019-05-12T17:50:09.933Z,1.40
2019-05-12T17:52:37.993Z,1.73
2019-05-12T17:55:10.585Z,1.27
2019-05-12T17:57:40.454Z,2.50
2019-05-12T18:00:11.030Z,4.50
2019-05-12T18:02:43.631Z,2.57
2019-05-12T18:05:15.523Z,5.97
2019-05-12T18:07:44.971Z,4.80
2019-05-12T18:10:16.409Z,1.63
2019-05-12T18:12:46.366Z,3.17
2019-05-12T18:15:25.626Z,1.60
2019-05-12T18:17:50.159Z,3.53
2019-05-12T18:20:20.232Z,2.93
2019-05-12T18:22:50.615Z,2.50
2019-05-12T18:25:24.194Z,3.17
2019-05-12T18:27:54.200Z,1.73
2019-05-12T18:30:23.996Z,2.07
2019-05-12T18:33:04.062Z,1.30
2019-05-12T18:35:26.535Z,1.50
2019-05-12T18:37:56.718Z,3.17
2019-05-12T18:40:28.168Z,1.60
2019-05-12T18:42:58.322Z,1.93
2019-05-12T18:45:28.273Z,2.60
2019-05-12T18:48:01.033Z,2.23
2019-05-12T18:50:32.071Z,4.30
2019-05-12T18:53:02.037Z,3.53
2019-05-12T18:55:35.930Z,3.17
2019-05-12T18:58:04.463Z,3.13
2019-05-12T19:00:34.431Z,1.87
2019-05-12T19:03:07.267Z,2.50
2019-05-12T19:05:36.318Z,2.20
2019-05-12T19:08:06.257Z,2.07
2019-05-12T19:10:38.707Z,2.63
2019-05-12T19:13:07.981Z,2.43
2019-05-12T19:15:37.930Z,1.90
2019-05-12T19:18:07.933Z,3.27
2019-05-12T19:20:38.298Z,1.57
2019-05-12T19:23:08.228Z,2.10
2019-05-12T19:25:40.759Z,2.33
2019-05-12T19:28:10.520Z,2.47
2019-05-12T19:30:40.820Z,2.03
2019-05-12T19:33:11.133Z,2.37
2019-05-12T19:35:42.606Z,2.50
2019-05-12T19:38:15.192Z,1.50
2019-05-12T19:40:47.248Z,2.43
2019-05-12T19:43:16.520Z,1.50
2019-05-12T19:45:46.539Z,1.57
2019-05-12T19:48:24.889Z,3.97
2019-05-12T19:50:55.124Z,1.67
2019-05-12T19:53:20.094Z,2.23
2019-05-12T19:55:50.314Z,3.20
2019-05-12T19:58:20.250Z,2.63
2019-05-12T20:00:50.196Z,2.53
2019-05-12T20:03:20.689Z,1.90
2019-05-12T20:05:50.873Z,2.47
2019-05-12T20:08:20.751Z,2.13
2019-05-12T20:10:50.675Z,1.73
2019-05-12T20:13:21.892Z,3.57
2019-05-12T20:15:53.063Z,2.13
2019-05-12T20:18:23.776Z,1.50
2019-05-12T20:20:54.441Z,1.70
2019-05-12T20:23:24.726Z,4.40
2019-05-12T20:25:55.025Z,2.90
2019-05-12T20:28:25.062Z,2.53
2019-05-12T20:31:00.770Z,2.50
2019-05-12T20:33:26.813Z,3.00
2019-05-12T20:35:57.098Z,3.00
2019-05-12T20:38:34.040Z,2.90
2019-05-12T20:40:58.579Z,1.80
2019-05-12T20:43:32.355Z,3.60
2019-05-12T20:46:00.534Z,2.63
2019-05-12T20:48:31.232Z,5.40
2019-05-12T20:51:03.457Z,4.40
2019-05-12T20:53:36.306Z,4.37
2019-05-12T20:56:05.057Z,3.37
2019-05-12T20:58:42.997Z,2.10
2019-05-12T21:01:06.647Z,4.47
2019-05-12T21:03:39.784Z,3.80
2019-05-12T21:06:08.148Z,3.07
2019-05-12T21:08:38.100Z,2.23
2019-05-12T21:11:08.024Z,2.43
2019-05-12T21:13:38.352Z,4.10
2019-05-12T21:16:16.544Z,3.43
2019-05-12T21:18:47.774Z,2.87
2019-05-12T21:21:14.119Z,2.43
2019-05-12T21:23:45.577Z,3.47
2019-05-12T21:26:15.348Z,3.07
2019-05-12T21:28:48.224Z,2.03
2019-05-12T21:31:20.485Z,3.30
2019-05-12T21:33:48.610Z,2.13
2019-05-12T21:36:24.159Z,2.50
2019-05-12T21:38:50.147Z,3.67
2019-05-12T21:41:21.835Z,4.00
2019-05-12T21:43:51.603Z,2.37
2019-05-12T21:46:24.248Z,3.60
2019-05-12T21:48:56.159Z,4.60
2019-05-12T21:51:25.604Z,6.83
2019-05-12T21:53:56.119Z,2.60
2019-05-12T21:56:27.581Z,3.80
2019-05-12T21:58:58.323Z,2.20
2019-05-12T22:01:28.370Z,2.17
2019-05-12T22:04:02.332Z,3.97
2019-05-12T22:06:30.570Z,4.10
2019-05-12T22:09:04.174Z,3.90
2019-05-12T22:11:34.777Z,3.23
2019-05-12T22:14:04.933Z,3.63
2019-05-12T22:16:43.349Z,3.63
2019-05-12T22:19:08.417Z,2.47
2019-05-12T22:21:46.951Z,4.97
2019-05-12T22:24:09.773Z,2.10
2019-05-12T22:26:43.348Z,1.63
2019-05-12T22:29:13.552Z,3.43
2019-05-12T22:31:47.082Z,3.50
2019-05-12T22:34:15.017Z,2.00
2019-05-12T22:36:54.643Z,2.40
2019-05-12T22:39:17.229Z,2.23
2019-05-12T22:41:47.096Z,3.00
2019-05-12T22:44:20.809Z,1.50
2019-05-12T22:46:48.538Z,2.37
2019-05-12T22:49:21.141Z,2.23
2019-05-12T22:51:54.589Z,1.60
2019-05-12T22:54:21.533Z,4.13
2019-05-12T22:56:55.323Z,3.17
2019-05-12T22:59:24.069Z,2.27
2019-05-12T23:01:54.314Z,3.53
2019-05-12T23:04:25.938Z,4.53
2019-05-12T23:06:56.187Z,4.17
2019-05-12T23:09:30.044Z,4.07
2019-05-12T23:11:57.984Z,3.60
2019-05-12T23:14:27.832Z,2.10
2019-05-12T23:17:00.154Z,1.87
2019-05-12T23:19:29.874Z,3.77
2019-05-12T23:22:00.163Z,3.00
2019-05-12T23:24:30.305Z,3.67
2019-05-12T23:27:01.667Z,1.63
2019-05-12T23:29:33.747Z,4.13
2019-05-12T23:32:07.204Z,3.90
2019-05-12T23:34:35.790Z,2.60
2019-05-12T23:37:05.954Z,4.43
2019-05-12T23:39:38.243Z,3.40
2019-05-12T23:42:07.393Z,3.50
2019-05-12T23:44:37.249Z,2.13
2019-05-12T23:47:07.186Z,4.23
2019-05-12T23:49:37.128Z,3.10
2019-05-12T23:52:08.868Z,2.37
2019-05-12T23:54:38.741Z,2.90
2019-05-12T23:57:08.683Z,2.30
2019-05-12T23:59:38.548Z,2.03
